Terminal Aerodrome Forecast
Issued by NWS

Home | Current Version | Previous Version | Graphics & Text | Print | Product List | Glossary On
Versions: 1 2 3 4 5 6 7 8 9 10 11 12 13 14 15 16 17 18 19 20 21 22
772
FTUS43 KTOP 241721
TAFFOE
TAF
KFOE 241721Z 2418/2518 16010KT P6SM BKN150
     FM242100 16010KT P6SM FEW035
     FM250300 17010KT P6SM VCTS SCT030CB
     FM251200 17011KT P6SM VCSH SCT020 BKN030=

USA.gov is the U.S. government's official web portal to all federal, state and local government web resources and services.